sensor_id;sensor_type;location;lat;lon;timestamp;P1;durP1;ratioP1;P2;durP2;ratioP2
20743;SDS011;56303;52.160;-0.428;2023-07-13T00:01:54;9.60;;;3.60;;
20743;SDS011;56303;52.160;-0.428;2023-07-13T00:04:22;6.77;;;3.33;;
20743;SDS011;56303;52.160;-0.428;2023-07-13T00:06:55;6.77;;;4.27;;
20743;SDS011;56303;52.160;-0.428;2023-07-13T00:09:22;8.50;;;3.57;;
20743;SDS011;56303;52.160;-0.428;2023-07-13T00:11:53;10.77;;;3.70;;
20743;SDS011;56303;52.160;-0.428;2023-07-13T00:14:22;6.63;;;4.30;;
20743;SDS011;56303;52.160;-0.428;2023-07-13T00:16:50;7.50;;;3.27;;
20743;SDS011;56303;52.160;-0.428;2023-07-13T00:19:17;7.20;;;4.43;;
20743;SDS011;56303;52.160;-0.428;2023-07-13T00:21:44;6.50;;;3.63;;
20743;SDS011;56303;52.160;-0.428;2023-07-13T00:24:12;10.17;;;3.77;;
20743;SDS011;56303;52.160;-0.428;2023-07-13T00:26:42;6.97;;;4.10;;
20743;SDS011;56303;52.160;-0.428;2023-07-13T00:29:12;6.53;;;3.87;;
20743;SDS011;56303;52.160;-0.428;2023-07-13T00:31:40;8.73;;;4.30;;
20743;SDS011;56303;52.160;-0.428;2023-07-13T00:34:07;5.27;;;3.37;;
20743;SDS011;56303;52.160;-0.428;2023-07-13T00:36:34;8.40;;;3.77;;
20743;SDS011;56303;52.160;-0.428;2023-07-13T00:39:01;6.20;;;3.30;;
20743;SDS011;56303;52.160;-0.428;2023-07-13T00:41:30;8.57;;;4.17;;
20743;SDS011;56303;52.160;-0.428;2023-07-13T00:43:57;7.00;;;3.60;;
20743;SDS011;56303;52.160;-0.428;2023-07-13T00:46:30;7.37;;;4.37;;
20743;SDS011;56303;52.160;-0.428;2023-07-13T00:49:00;8.53;;;4.90;;
20743;SDS011;56303;52.160;-0.428;2023-07-13T00:51:32;7.07;;;4.10;;
20743;SDS011;56303;52.160;-0.428;2023-07-13T00:54:06;6.23;;;3.70;;
20743;SDS011;56303;52.160;-0.428;2023-07-13T00:56:36;7.47;;;3.67;;
20743;SDS011;56303;52.160;-0.428;2023-07-13T00:59:04;8.87;;;4.37;;
20743;SDS011;56303;52.160;-0.428;2023-07-13T01:01:33;8.53;;;3.93;;
20743;SDS011;56303;52.160;-0.428;2023-07-13T01:04:00;7.97;;;3.90;;
20743;SDS011;56303;52.160;-0.428;2023-07-13T01:06:27;7.97;;;4.00;;
20743;SDS011;56303;52.160;-0.428;2023-07-13T01:08:55;7.40;;;4.03;;
20743;SDS011;56303;52.160;-0.428;2023-07-13T01:11:24;8.27;;;4.40;;
20743;SDS011;56303;52.160;-0.428;2023-07-13T01:13:51;9.70;;;4.30;;
20743;SDS011;56303;52.160;-0.428;2023-07-13T01:16:25;6.90;;;4.00;;
20743;SDS011;56303;52.160;-0.428;2023-07-13T01:18:55;9.20;;;3.90;;
20743;SDS011;56303;52.160;-0.428;2023-07-13T01:21:26;5.77;;;3.87;;
20743;SDS011;56303;52.160;-0.428;2023-07-13T01:23:54;8.80;;;4.30;;
20743;SDS011;56303;52.160;-0.428;2023-07-13T01:26:21;9.60;;;4.93;;
20743;SDS011;56303;52.160;-0.428;2023-07-13T01:28:48;6.93;;;4.20;;
20743;SDS011;56303;52.160;-0.428;2023-07-13T01:31:15;7.90;;;3.80;;
20743;SDS011;56303;52.160;-0.428;2023-07-13T01:33:42;8.37;;;4.93;;
20743;SDS011;56303;52.160;-0.428;2023-07-13T01:36:10;11.57;;;5.10;;
20743;SDS011;56303;52.160;-0.428;2023-07-13T01:38:38;8.37;;;4.40;;
20743;SDS011;56303;52.160;-0.428;2023-07-13T01:41:07;10.20;;;4.60;;
20743;SDS011;56303;52.160;-0.428;2023-07-13T01:43:34;5.83;;;4.13;;
20743;SDS011;56303;52.160;-0.428;2023-07-13T01:46:01;11.47;;;5.10;;
20743;SDS011;56303;52.160;-0.428;2023-07-13T01:48:47;11.17;;;4.90;;
20743;SDS011;56303;52.160;-0.428;2023-07-13T01:51:15;8.97;;;4.40;;
20743;SDS011;56303;52.160;-0.428;2023-07-13T01:53:42;10.40;;;4.67;;
20743;SDS011;56303;52.160;-0.428;2023-07-13T01:56:09;6.73;;;4.40;;
20743;SDS011;56303;52.160;-0.428;2023-07-13T01:58:36;10.63;;;5.00;;
20743;SDS011;56303;52.160;-0.428;2023-07-13T02:01:03;8.97;;;4.70;;
20743;SDS011;56303;52.160;-0.428;2023-07-13T02:03:30;8.93;;;4.80;;
20743;SDS011;56303;52.160;-0.428;2023-07-13T02:05:57;9.27;;;5.37;;
20743;SDS011;56303;52.160;-0.428;2023-07-13T02:08:24;6.67;;;4.13;;
20743;SDS011;56303;52.160;-0.428;2023-07-13T02:10:51;7.83;;;5.03;;
20743;SDS011;56303;52.160;-0.428;2023-07-13T02:13:17;8.37;;;5.43;;
20743;SDS011;56303;52.160;-0.428;2023-07-13T02:15:44;8.13;;;4.57;;
20743;SDS011;56303;52.160;-0.428;2023-07-13T02:18:11;7.63;;;4.90;;
20743;SDS011;56303;52.160;-0.428;2023-07-13T02:20:43;9.93;;;4.77;;
20743;SDS011;56303;52.160;-0.428;2023-07-13T02:23:10;9.00;;;4.87;;
20743;SDS011;56303;52.160;-0.428;2023-07-13T02:25:37;9.03;;;5.23;;
20743;SDS011;56303;52.160;-0.428;2023-07-13T02:28:04;7.93;;;4.90;;
20743;SDS011;56303;52.160;-0.428;2023-07-13T02:30:31;7.23;;;5.07;;
20743;SDS011;56303;52.160;-0.428;2023-07-13T02:32:58;8.27;;;5.13;;
20743;SDS011;56303;52.160;-0.428;2023-07-13T02:35:25;9.67;;;5.30;;
20743;SDS011;56303;52.160;-0.428;2023-07-13T02:37:52;9.23;;;5.13;;
20743;SDS011;56303;52.160;-0.428;2023-07-13T02:40:19;8.17;;;4.93;;
20743;SDS011;56303;52.160;-0.428;2023-07-13T02:42:46;10.97;;;4.70;;
20743;SDS011;56303;52.160;-0.428;2023-07-13T02:45:13;8.50;;;5.57;;
20743;SDS011;56303;52.160;-0.428;2023-07-13T02:47:41;10.17;;;4.97;;
20743;SDS011;56303;52.160;-0.428;2023-07-13T02:50:08;10.30;;;5.60;;
20743;SDS011;56303;52.160;-0.428;2023-07-13T02:52:35;9.40;;;5.03;;
20743;SDS011;56303;52.160;-0.428;2023-07-13T02:55:02;11.47;;;5.77;;
20743;SDS011;56303;52.160;-0.428;2023-07-13T02:57:29;6.80;;;4.50;;
20743;SDS011;56303;52.160;-0.428;2023-07-13T02:59:59;8.33;;;4.83;;
20743;SDS011;56303;52.160;-0.428;2023-07-13T03:02:26;9.93;;;5.23;;
20743;SDS011;56303;52.160;-0.428;2023-07-13T03:04:55;9.50;;;5.03;;
20743;SDS011;56303;52.160;-0.428;2023-07-13T03:07:22;7.83;;;5.10;;
20743;SDS011;56303;52.160;-0.428;2023-07-13T03:09:49;6.00;;;4.33;;
20743;SDS011;56303;52.160;-0.428;2023-07-13T03:12:21;8.23;;;5.00;;
20743;SDS011;56303;52.160;-0.428;2023-07-13T03:14:49;8.53;;;4.90;;
20743;SDS011;56303;52.160;-0.428;2023-07-13T03:17:16;7.63;;;4.13;;
20743;SDS011;56303;52.160;-0.428;2023-07-13T03:19:43;8.20;;;4.93;;
20743;SDS011;56303;52.160;-0.428;2023-07-13T03:22:10;9.27;;;4.53;;
20743;SDS011;56303;52.160;-0.428;2023-07-13T03:24:37;9.33;;;4.87;;
20743;SDS011;56303;52.160;-0.428;2023-07-13T03:27:05;10.77;;;5.97;;
20743;SDS011;56303;52.160;-0.428;2023-07-13T03:29:32;11.47;;;4.83;;
20743;SDS011;56303;52.160;-0.428;2023-07-13T03:31:59;8.83;;;4.53;;
20743;SDS011;56303;52.160;-0.428;2023-07-13T03:34:26;7.80;;;4.90;;
20743;SDS011;56303;52.160;-0.428;2023-07-13T03:36:53;10.40;;;4.80;;
20743;SDS011;56303;52.160;-0.428;2023-07-13T03:39:21;9.10;;;4.47;;
20743;SDS011;56303;52.160;-0.428;2023-07-13T03:41:49;7.23;;;5.13;;
20743;SDS011;56303;52.160;-0.428;2023-07-13T03:44:16;8.67;;;4.33;;
20743;SDS011;56303;52.160;-0.428;2023-07-13T03:46:44;7.67;;;4.43;;
20743;SDS011;56303;52.160;-0.428;2023-07-13T03:49:11;10.07;;;5.50;;
20743;SDS011;56303;52.160;-0.428;2023-07-13T03:51:38;9.13;;;4.70;;
20743;SDS011;56303;52.160;-0.428;2023-07-13T03:54:05;6.87;;;5.37;;
20743;SDS011;56303;52.160;-0.428;2023-07-13T03:56:32;10.53;;;5.03;;
20743;SDS011;56303;52.160;-0.428;2023-07-13T03:59:00;7.50;;;4.87;;
20743;SDS011;56303;52.160;-0.428;2023-07-13T04:01:26;9.00;;;4.60;;
20743;SDS011;56303;52.160;-0.428;2023-07-13T04:03:54;10.87;;;4.70;;
20743;SDS011;56303;52.160;-0.428;2023-07-13T04:06:23;9.97;;;5.23;;
20743;SDS011;56303;52.160;-0.428;2023-07-13T04:08:53;7.93;;;4.90;;
20743;SDS011;56303;52.160;-0.428;2023-07-13T04:11:22;8.10;;;4.37;;
20743;SDS011;56303;52.160;-0.428;2023-07-13T04:13:50;7.97;;;4.47;;
20743;SDS011;56303;52.160;-0.428;2023-07-13T04:16:18;9.20;;;4.53;;
20743;SDS011;56303;52.160;-0.428;2023-07-13T04:18:46;8.73;;;5.03;;
20743;SDS011;56303;52.160;-0.428;2023-07-13T04:21:14;9.20;;;4.50;;
20743;SDS011;56303;52.160;-0.428;2023-07-13T04:23:41;7.33;;;4.97;;
20743;SDS011;56303;52.160;-0.428;2023-07-13T04:26:08;9.10;;;4.73;;
20743;SDS011;56303;52.160;-0.428;2023-07-13T04:28:36;7.93;;;4.73;;
20743;SDS011;56303;52.160;-0.428;2023-07-13T04:31:03;6.47;;;4.47;;
20743;SDS011;56303;52.160;-0.428;2023-07-13T04:33:30;7.80;;;4.47;;
20743;SDS011;56303;52.160;-0.428;2023-07-13T04:35:57;10.10;;;5.20;;
20743;SDS011;56303;52.160;-0.428;2023-07-13T04:38:29;7.93;;;5.23;;
20743;SDS011;56303;52.160;-0.428;2023-07-13T04:40:58;5.77;;;4.37;;
20743;SDS011;56303;52.160;-0.428;2023-07-13T04:43:27;8.27;;;5.17;;
20743;SDS011;56303;52.160;-0.428;2023-07-13T04:45:55;11.37;;;5.37;;
20743;SDS011;56303;52.160;-0.428;2023-07-13T04:48:23;10.37;;;4.43;;
20743;SDS011;56303;52.160;-0.428;2023-07-13T04:50:54;7.30;;;4.67;;
20743;SDS011;56303;52.160;-0.428;2023-07-13T04:53:22;10.93;;;4.47;;
20743;SDS011;56303;52.160;-0.428;2023-07-13T04:55:49;8.60;;;4.77;;
20743;SDS011;56303;52.160;-0.428;2023-07-13T04:58:16;8.87;;;4.73;;
20743;SDS011;56303;52.160;-0.428;2023-07-13T05:00:43;9.17;;;4.27;;
20743;SDS011;56303;52.160;-0.428;2023-07-13T05:03:10;6.77;;;4.33;;
20743;SDS011;56303;52.160;-0.428;2023-07-13T05:05:37;8.43;;;4.50;;
20743;SDS011;56303;52.160;-0.428;2023-07-13T05:08:04;9.67;;;4.73;;
20743;SDS011;56303;52.160;-0.428;2023-07-13T05:10:31;9.37;;;4.30;;
20743;SDS011;56303;52.160;-0.428;2023-07-13T05:12:58;10.33;;;4.33;;
20743;SDS011;56303;52.160;-0.428;2023-07-13T05:15:25;10.77;;;4.50;;
20743;SDS011;56303;52.160;-0.428;2023-07-13T05:17:52;7.60;;;3.63;;
20743;SDS011;56303;52.160;-0.428;2023-07-13T05:20:19;6.23;;;5.03;;
20743;SDS011;56303;52.160;-0.428;2023-07-13T05:22:46;7.20;;;3.60;;
20743;SDS011;56303;52.160;-0.428;2023-07-13T05:25:13;7.00;;;3.93;;
20743;SDS011;56303;52.160;-0.428;2023-07-13T05:27:40;13.63;;;4.63;;
20743;SDS011;56303;52.160;-0.428;2023-07-13T05:30:07;9.13;;;4.20;;
20743;SDS011;56303;52.160;-0.428;2023-07-13T05:32:37;7.70;;;4.13;;
20743;SDS011;56303;52.160;-0.428;2023-07-13T05:35:04;8.17;;;4.23;;
20743;SDS011;56303;52.160;-0.428;2023-07-13T05:37:32;8.20;;;4.40;;
20743;SDS011;56303;52.160;-0.428;2023-07-13T05:39:59;9.30;;;3.73;;
20743;SDS011;56303;52.160;-0.428;2023-07-13T05:42:26;8.83;;;4.00;;
20743;SDS011;56303;52.160;-0.428;2023-07-13T05:44:53;7.03;;;4.03;;
20743;SDS011;56303;52.160;-0.428;2023-07-13T05:47:20;12.70;;;5.20;;
20743;SDS011;56303;52.160;-0.428;2023-07-13T05:49:47;8.53;;;4.17;;
20743;SDS011;56303;52.160;-0.428;2023-07-13T05:52:14;6.10;;;3.67;;
20743;SDS011;56303;52.160;-0.428;2023-07-13T05:54:41;8.57;;;3.57;;
20743;SDS011;56303;52.160;-0.428;2023-07-13T05:57:08;13.47;;;4.63;;
20743;SDS011;56303;52.160;-0.428;2023-07-13T05:59:35;7.00;;;4.20;;
20743;SDS011;56303;52.160;-0.428;2023-07-13T06:02:02;10.90;;;4.47;;
20743;SDS011;56303;52.160;-0.428;2023-07-13T06:04:29;8.13;;;3.87;;
20743;SDS011;56303;52.160;-0.428;2023-07-13T06:06:56;10.13;;;4.27;;
20743;SDS011;56303;52.160;-0.428;2023-07-13T06:09:23;9.30;;;4.00;;
20743;SDS011;56303;52.160;-0.428;2023-07-13T06:11:49;8.70;;;3.83;;
20743;SDS011;56303;52.160;-0.428;2023-07-13T06:14:16;6.23;;;3.40;;
20743;SDS011;56303;52.160;-0.428;2023-07-13T06:16:43;9.20;;;3.63;;
20743;SDS011;56303;52.160;-0.428;2023-07-13T06:19:10;8.70;;;3.70;;
20743;SDS011;56303;52.160;-0.428;2023-07-13T06:21:37;5.77;;;3.93;;
20743;SDS011;56303;52.160;-0.428;2023-07-13T06:24:14;6.77;;;3.60;;
20743;SDS011;56303;52.160;-0.428;2023-07-13T06:26:41;8.97;;;3.93;;
20743;SDS011;56303;52.160;-0.428;2023-07-13T06:29:08;6.70;;;4.00;;
20743;SDS011;56303;52.160;-0.428;2023-07-13T06:31:35;8.30;;;4.37;;
20743;SDS011;56303;52.160;-0.428;2023-07-13T06:34:02;7.60;;;4.17;;
20743;SDS011;56303;52.160;-0.428;2023-07-13T06:36:29;8.47;;;4.30;;
20743;SDS011;56303;52.160;-0.428;2023-07-13T06:38:56;7.00;;;3.80;;
20743;SDS011;56303;52.160;-0.428;2023-07-13T06:41:23;10.13;;;4.30;;
20743;SDS011;56303;52.160;-0.428;2023-07-13T06:43:52;7.93;;;3.60;;
20743;SDS011;56303;52.160;-0.428;2023-07-13T06:46:21;8.43;;;3.97;;
20743;SDS011;56303;52.160;-0.428;2023-07-13T06:48:48;8.43;;;3.50;;
20743;SDS011;56303;52.160;-0.428;2023-07-13T06:51:15;6.93;;;3.87;;
20743;SDS011;56303;52.160;-0.428;2023-07-13T06:53:45;7.30;;;3.57;;
20743;SDS011;56303;52.160;-0.428;2023-07-13T06:56:19;7.97;;;3.60;;
20743;SDS011;56303;52.160;-0.428;2023-07-13T06:58:46;9.27;;;3.47;;
20743;SDS011;56303;52.160;-0.428;2023-07-13T07:01:13;8.03;;;4.50;;
20743;SDS011;56303;52.160;-0.428;2023-07-13T07:03:40;8.00;;;3.80;;
20743;SDS011;56303;52.160;-0.428;2023-07-13T07:06:18;7.70;;;4.00;;
20743;SDS011;56303;52.160;-0.428;2023-07-13T07:08:47;6.73;;;4.00;;
20743;SDS011;56303;52.160;-0.428;2023-07-13T07:11:18;5.43;;;3.77;;
20743;SDS011;56303;52.160;-0.428;2023-07-13T07:13:48;6.90;;;4.13;;
20743;SDS011;56303;52.160;-0.428;2023-07-13T07:16:16;8.73;;;4.17;;
20743;SDS011;56303;52.160;-0.428;2023-07-13T07:18:44;6.47;;;3.77;;
20743;SDS011;56303;52.160;-0.428;2023-07-13T07:21:12;5.87;;;3.40;;
20743;SDS011;56303;52.160;-0.428;2023-07-13T07:23:39;6.60;;;4.07;;
20743;SDS011;56303;52.160;-0.428;2023-07-13T07:26:06;5.93;;;3.40;;
20743;SDS011;56303;52.160;-0.428;2023-07-13T07:28:35;5.13;;;3.80;;
20743;SDS011;56303;52.160;-0.428;2023-07-13T07:31:04;7.40;;;3.87;;
20743;SDS011;56303;52.160;-0.428;2023-07-13T07:33:34;8.00;;;3.83;;
20743;SDS011;56303;52.160;-0.428;2023-07-13T07:36:01;6.63;;;3.20;;
20743;SDS011;56303;52.160;-0.428;2023-07-13T07:38:32;7.27;;;3.77;;
20743;SDS011;56303;52.160;-0.428;2023-07-13T07:41:00;6.30;;;3.57;;
20743;SDS011;56303;52.160;-0.428;2023-07-13T07:43:32;5.87;;;3.40;;
20743;SDS011;56303;52.160;-0.428;2023-07-13T07:45:59;6.67;;;3.43;;
20743;SDS011;56303;52.160;-0.428;2023-07-13T07:48:33;5.50;;;3.03;;
20743;SDS011;56303;52.160;-0.428;2023-07-13T07:50:59;6.77;;;3.40;;
20743;SDS011;56303;52.160;-0.428;2023-07-13T07:53:26;7.60;;;3.07;;
20743;SDS011;56303;52.160;-0.428;2023-07-13T07:55:53;7.67;;;2.83;;
20743;SDS011;56303;52.160;-0.428;2023-07-13T07:58:40;4.57;;;3.03;;
20743;SDS011;56303;52.160;-0.428;2023-07-13T08:01:10;5.10;;;2.80;;
20743;SDS011;56303;52.160;-0.428;2023-07-13T08:03:40;3.93;;;2.50;;
20743;SDS011;56303;52.160;-0.428;2023-07-13T08:06:10;5.40;;;2.63;;
20743;SDS011;56303;52.160;-0.428;2023-07-13T08:08:39;7.80;;;3.20;;
20743;SDS011;56303;52.160;-0.428;2023-07-13T08:11:07;5.20;;;3.23;;
20743;SDS011;56303;52.160;-0.428;2023-07-13T08:13:38;5.90;;;3.60;;
20743;SDS011;56303;52.160;-0.428;2023-07-13T08:16:06;5.30;;;2.80;;
20743;SDS011;56303;52.160;-0.428;2023-07-13T08:18:33;4.10;;;2.47;;
20743;SDS011;56303;52.160;-0.428;2023-07-13T08:21:07;4.87;;;2.77;;
20743;SDS011;56303;52.160;-0.428;2023-07-13T08:23:35;4.97;;;2.97;;
20743;SDS011;56303;52.160;-0.428;2023-07-13T08:26:02;5.67;;;3.10;;
20743;SDS011;56303;52.160;-0.428;2023-07-13T08:28:30;6.33;;;2.60;;
20743;SDS011;56303;52.160;-0.428;2023-07-13T08:31:02;6.00;;;3.00;;
20743;SDS011;56303;52.160;-0.428;2023-07-13T08:33:31;6.27;;;2.67;;
20743;SDS011;56303;52.160;-0.428;2023-07-13T08:35:58;6.23;;;3.00;;
20743;SDS011;56303;52.160;-0.428;2023-07-13T08:38:25;5.87;;;3.13;;
20743;SDS011;56303;52.160;-0.428;2023-07-13T08:40:52;5.27;;;2.73;;
20743;SDS011;56303;52.160;-0.428;2023-07-13T08:43:32;6.67;;;2.87;;
20743;SDS011;56303;52.160;-0.428;2023-07-13T08:46:08;6.63;;;2.90;;
20743;SDS011;56303;52.160;-0.428;2023-07-13T08:48:41;6.37;;;3.17;;
20743;SDS011;56303;52.160;-0.428;2023-07-13T08:53:58;6.23;;;3.07;;
20743;SDS011;56303;52.160;-0.428;2023-07-13T08:56:29;5.53;;;2.77;;
20743;SDS011;56303;52.160;-0.428;2023-07-13T08:59:02;6.50;;;3.00;;
20743;SDS011;56303;52.160;-0.428;2023-07-13T09:04:25;7.07;;;3.90;;
20743;SDS011;56303;52.160;-0.428;2023-07-13T09:06:59;5.17;;;3.00;;
20743;SDS011;56303;52.160;-0.428;2023-07-13T09:14:42;5.27;;;2.80;;
20743;SDS011;56303;52.160;-0.428;2023-07-13T09:17:29;6.53;;;2.90;;
20743;SDS011;56303;52.160;-0.428;2023-07-13T09:20:21;4.50;;;2.50;;
20743;SDS011;56303;52.160;-0.428;2023-07-13T09:22:53;6.57;;;3.33;;
20743;SDS011;56303;52.160;-0.428;2023-07-13T09:25:34;6.00;;;3.17;;
20743;SDS011;56303;52.160;-0.428;2023-07-13T09:28:16;7.97;;;2.63;;
20743;SDS011;56303;52.160;-0.428;2023-07-13T09:31:00;4.23;;;2.90;;
20743;SDS011;56303;52.160;-0.428;2023-07-13T09:33:30;5.77;;;3.00;;
20743;SDS011;56303;52.160;-0.428;2023-07-13T09:35:58;5.90;;;2.90;;
20743;SDS011;56303;52.160;-0.428;2023-07-13T09:38:27;6.70;;;2.77;;
20743;SDS011;56303;52.160;-0.428;2023-07-13T09:43:29;4.53;;;2.50;;
20743;SDS011;56303;52.160;-0.428;2023-07-13T09:45:56;6.23;;;3.03;;
20743;SDS011;56303;52.160;-0.428;2023-07-13T09:48:23;4.40;;;2.73;;
20743;SDS011;56303;52.160;-0.428;2023-07-13T09:50:54;6.33;;;2.70;;
20743;SDS011;56303;52.160;-0.428;2023-07-13T09:53:23;5.43;;;2.63;;
20743;SDS011;56303;52.160;-0.428;2023-07-13T09:55:50;5.37;;;2.50;;
20743;SDS011;56303;52.160;-0.428;2023-07-13T09:58:22;6.87;;;2.57;;
20743;SDS011;56303;52.160;-0.428;2023-07-13T10:01:01;5.97;;;2.63;;
20743;SDS011;56303;52.160;-0.428;2023-07-13T10:03:35;4.97;;;2.60;;
20743;SDS011;56303;52.160;-0.428;2023-07-13T10:08:41;5.13;;;2.50;;
20743;SDS011;56303;52.160;-0.428;2023-07-13T10:11:09;4.17;;;2.10;;
20743;SDS011;56303;52.160;-0.428;2023-07-13T10:13:53;5.00;;;2.47;;
20743;SDS011;56303;52.160;-0.428;2023-07-13T10:16:26;6.07;;;3.70;;
20743;SDS011;56303;52.160;-0.428;2023-07-13T10:19:05;5.63;;;2.30;;
20743;SDS011;56303;52.160;-0.428;2023-07-13T10:21:49;4.90;;;2.50;;
20743;SDS011;56303;52.160;-0.428;2023-07-13T10:24:20;2.77;;;2.03;;
20743;SDS011;56303;52.160;-0.428;2023-07-13T10:27:05;4.23;;;2.33;;
20743;SDS011;56303;52.160;-0.428;2023-07-13T10:29:45;4.87;;;2.37;;
20743;SDS011;56303;52.160;-0.428;2023-07-13T10:32:16;4.73;;;2.20;;
20743;SDS011;56303;52.160;-0.428;2023-07-13T10:34:47;3.53;;;1.93;;
20743;SDS011;56303;52.160;-0.428;2023-07-13T10:37:20;3.70;;;2.30;;
20743;SDS011;56303;52.160;-0.428;2023-07-13T10:39:52;3.17;;;2.73;;
20743;SDS011;56303;52.160;-0.428;2023-07-13T10:42:29;4.97;;;2.83;;
20743;SDS011;56303;52.160;-0.428;2023-07-13T10:44:59;5.63;;;2.90;;
20743;SDS011;56303;52.160;-0.428;2023-07-13T10:47:26;4.17;;;2.80;;
20743;SDS011;56303;52.160;-0.428;2023-07-13T10:49:53;4.43;;;3.00;;
20743;SDS011;56303;52.160;-0.428;2023-07-13T10:58:21;5.57;;;3.13;;
20743;SDS011;56303;52.160;-0.428;2023-07-13T11:00:56;5.67;;;3.40;;
20743;SDS011;56303;52.160;-0.428;2023-07-13T11:03:24;4.50;;;3.20;;
20743;SDS011;56303;52.160;-0.428;2023-07-13T11:06:15;4.10;;;3.10;;
20743;SDS011;56303;52.160;-0.428;2023-07-13T11:12:07;6.30;;;3.50;;
20743;SDS011;56303;52.160;-0.428;2023-07-13T11:14:36;4.93;;;2.93;;
20743;SDS011;56303;52.160;-0.428;2023-07-13T11:19:54;5.37;;;3.20;;
20743;SDS011;56303;52.160;-0.428;2023-07-13T11:22:49;4.20;;;2.93;;
20743;SDS011;56303;52.160;-0.428;2023-07-13T11:25:46;5.47;;;3.07;;
20743;SDS011;56303;52.160;-0.428;2023-07-13T11:28:16;4.93;;;2.80;;
20743;SDS011;56303;52.160;-0.428;2023-07-13T11:30:49;4.20;;;2.77;;
20743;SDS011;56303;52.160;-0.428;2023-07-13T11:33:20;5.87;;;2.80;;
20743;SDS011;56303;52.160;-0.428;2023-07-13T11:41:05;4.10;;;2.73;;
20743;SDS011;56303;52.160;-0.428;2023-07-13T11:43:50;3.37;;;2.60;;
20743;SDS011;56303;52.160;-0.428;2023-07-13T11:46:26;2.87;;;2.40;;
20743;SDS011;56303;52.160;-0.428;2023-07-13T11:48:54;4.57;;;2.77;;
20743;SDS011;56303;52.160;-0.428;2023-07-13T11:53:54;4.67;;;2.90;;
20743;SDS011;56303;52.160;-0.428;2023-07-13T11:56:24;4.90;;;3.23;;
20743;SDS011;56303;52.160;-0.428;2023-07-13T11:58:53;5.37;;;3.53;;
20743;SDS011;56303;52.160;-0.428;2023-07-13T12:01:26;5.50;;;3.27;;
20743;SDS011;56303;52.160;-0.428;2023-07-13T12:04:00;3.80;;;2.80;;
20743;SDS011;56303;52.160;-0.428;2023-07-13T12:06:33;5.90;;;3.40;;
20743;SDS011;56303;52.160;-0.428;2023-07-13T12:09:11;4.33;;;2.80;;
20743;SDS011;56303;52.160;-0.428;2023-07-13T12:11:40;5.80;;;3.20;;
20743;SDS011;56303;52.160;-0.428;2023-07-13T12:14:15;4.50;;;2.73;;
20743;SDS011;56303;52.160;-0.428;2023-07-13T12:16:42;4.87;;;3.17;;
20743;SDS011;56303;52.160;-0.428;2023-07-13T12:19:17;3.30;;;2.80;;
20743;SDS011;56303;52.160;-0.428;2023-07-13T12:21:48;5.10;;;2.70;;
20743;SDS011;56303;52.160;-0.428;2023-07-13T12:24:16;4.27;;;2.73;;
20743;SDS011;56303;52.160;-0.428;2023-07-13T12:26:46;3.80;;;2.83;;
20743;SDS011;56303;52.160;-0.428;2023-07-13T12:29:18;3.40;;;2.80;;
20743;SDS011;56303;52.160;-0.428;2023-07-13T12:31:45;3.80;;;2.30;;
20743;SDS011;56303;52.160;-0.428;2023-07-13T12:34:21;4.33;;;2.70;;
20743;SDS011;56303;52.160;-0.428;2023-07-13T12:36:51;5.40;;;2.83;;
20743;SDS011;56303;52.160;-0.428;2023-07-13T12:39:27;3.40;;;2.90;;
20743;SDS011;56303;52.160;-0.428;2023-07-13T12:42:09;4.30;;;3.07;;
20743;SDS011;56303;52.160;-0.428;2023-07-13T12:44:41;5.87;;;3.00;;
20743;SDS011;56303;52.160;-0.428;2023-07-13T12:47:11;4.53;;;2.70;;
20743;SDS011;56303;52.160;-0.428;2023-07-13T12:49:41;5.10;;;2.63;;
20743;SDS011;56303;52.160;-0.428;2023-07-13T12:52:12;5.17;;;2.83;;
20743;SDS011;56303;52.160;-0.428;2023-07-13T12:54:51;5.13;;;3.30;;
20743;SDS011;56303;52.160;-0.428;2023-07-13T12:57:32;6.17;;;2.70;;
20743;SDS011;56303;52.160;-0.428;2023-07-13T13:00:11;5.07;;;2.60;;
20743;SDS011;56303;52.160;-0.428;2023-07-13T13:02:52;4.47;;;2.30;;
20743;SDS011;56303;52.160;-0.428;2023-07-13T13:05:41;4.10;;;2.53;;
20743;SDS011;56303;52.160;-0.428;2023-07-13T13:08:10;3.30;;;2.40;;
20743;SDS011;56303;52.160;-0.428;2023-07-13T13:10:38;4.05;;;2.28;;
20743;SDS011;56303;52.160;-0.428;2023-07-13T13:13:05;2.83;;;2.03;;
20743;SDS011;56303;52.160;-0.428;2023-07-13T13:15:32;4.40;;;2.50;;
20743;SDS011;56303;52.160;-0.428;2023-07-13T13:17:59;3.60;;;2.20;;
20743;SDS011;56303;52.160;-0.428;2023-07-13T13:20:26;2.88;;;2.20;;
20743;SDS011;56303;52.160;-0.428;2023-07-13T13:22:53;3.85;;;2.17;;
20743;SDS011;56303;52.160;-0.428;2023-07-13T13:25:21;3.47;;;2.28;;
20743;SDS011;56303;52.160;-0.428;2023-07-13T13:27:49;3.40;;;2.00;;
20743;SDS011;56303;52.160;-0.428;2023-07-13T13:30:16;2.80;;;2.28;;
20743;SDS011;56303;52.160;-0.428;2023-07-13T13:32:44;2.80;;;2.40;;
20743;SDS011;56303;52.160;-0.428;2023-07-13T13:35:17;3.42;;;2.03;;
20743;SDS011;56303;52.160;-0.428;2023-07-13T13:37:46;4.45;;;2.50;;
20743;SDS011;56303;52.160;-0.428;2023-07-13T13:40:18;3.25;;;2.50;;
20743;SDS011;56303;52.160;-0.428;2023-07-13T13:42:47;3.25;;;2.70;;
20743;SDS011;56303;52.160;-0.428;2023-07-13T13:45:14;3.72;;;2.60;;
20743;SDS011;56303;52.160;-0.428;2023-07-13T13:47:44;3.70;;;2.90;;
20743;SDS011;56303;52.160;-0.428;2023-07-13T13:50:12;3.85;;;2.97;;
20743;SDS011;56303;52.160;-0.428;2023-07-13T13:52:41;4.50;;;2.70;;
20743;SDS011;56303;52.160;-0.428;2023-07-13T13:55:15;4.22;;;2.85;;
20743;SDS011;56303;52.160;-0.428;2023-07-13T13:57:48;2.97;;;2.45;;
20743;SDS011;56303;52.160;-0.428;2023-07-13T14:00:16;3.10;;;2.72;;
20743;SDS011;56303;52.160;-0.428;2023-07-13T14:02:47;5.22;;;2.70;;
20743;SDS011;56303;52.160;-0.428;2023-07-13T14:05:23;4.40;;;2.85;;
20743;SDS011;56303;52.160;-0.428;2023-07-13T14:07:54;2.80;;;2.50;;
20743;SDS011;56303;52.160;-0.428;2023-07-13T14:10:22;4.80;;;2.60;;
20743;SDS011;56303;52.160;-0.428;2023-07-13T14:12:52;3.47;;;2.40;;
20743;SDS011;56303;52.160;-0.428;2023-07-13T14:17:50;3.63;;;2.42;;
20743;SDS011;56303;52.160;-0.428;2023-07-13T14:20:18;3.75;;;2.50;;
20743;SDS011;56303;52.160;-0.428;2023-07-13T14:22:47;2.72;;;2.10;;
20743;SDS011;56303;52.160;-0.428;2023-07-13T14:25:15;4.88;;;2.60;;
20743;SDS011;56303;52.160;-0.428;2023-07-13T14:27:43;3.70;;;2.70;;
20743;SDS011;56303;52.160;-0.428;2023-07-13T14:30:12;4.30;;;2.90;;
20743;SDS011;56303;52.160;-0.428;2023-07-13T14:32:45;6.70;;;3.17;;
20743;SDS011;56303;52.160;-0.428;2023-07-13T14:35:13;3.87;;;2.83;;
20743;SDS011;56303;52.160;-0.428;2023-07-13T14:37:41;5.33;;;3.40;;
20743;SDS011;56303;52.160;-0.428;2023-07-13T14:40:16;3.90;;;2.97;;
20743;SDS011;56303;52.160;-0.428;2023-07-13T14:42:45;3.73;;;2.73;;
20743;SDS011;56303;52.160;-0.428;2023-07-13T14:45:14;5.37;;;3.07;;
20743;SDS011;56303;52.160;-0.428;2023-07-13T14:47:42;3.73;;;2.63;;
20743;SDS011;56303;52.160;-0.428;2023-07-13T14:50:14;4.47;;;2.90;;
20743;SDS011;56303;52.160;-0.428;2023-07-13T14:52:43;5.13;;;3.30;;
20743;SDS011;56303;52.160;-0.428;2023-07-13T14:55:12;4.27;;;3.10;;
20743;SDS011;56303;52.160;-0.428;2023-07-13T14:57:41;4.90;;;3.30;;
20743;SDS011;56303;52.160;-0.428;2023-07-13T15:00:15;4.80;;;3.30;;
20743;SDS011;56303;52.160;-0.428;2023-07-13T15:02:53;4.47;;;2.70;;
20743;SDS011;56303;52.160;-0.428;2023-07-13T15:05:26;6.37;;;3.43;;
20743;SDS011;56303;52.160;-0.428;2023-07-13T15:07:57;5.53;;;3.07;;
20743;SDS011;56303;52.160;-0.428;2023-07-13T15:10:27;5.43;;;3.60;;
20743;SDS011;56303;52.160;-0.428;2023-07-13T15:13:01;5.13;;;3.50;;
20743;SDS011;56303;52.160;-0.428;2023-07-13T15:15:45;5.17;;;3.10;;
20743;SDS011;56303;52.160;-0.428;2023-07-13T15:18:22;4.03;;;2.70;;
20743;SDS011;56303;52.160;-0.428;2023-07-13T15:20:51;4.70;;;3.00;;
20743;SDS011;56303;52.160;-0.428;2023-07-13T15:23:22;3.93;;;2.83;;
20743;SDS011;56303;52.160;-0.428;2023-07-13T15:25:49;3.83;;;2.70;;
20743;SDS011;56303;52.160;-0.428;2023-07-13T15:28:15;4.00;;;2.60;;